Time;durP1;ratioP1;P1;durP2;ratioP2;P2;SDS_P1;SDS_P2;PMS_P1;PMS_P2;Temp;Humidity;BMP_temperature;BMP_pressure;BME280_temperature;BME280_humidity;BME280_pressure;Samples;Min_cycle;Max_cycle;Signal;HPM_P1;HPM_P2
2024/03/04 00:01:16;;;;;;;9.60;5.20;;;;;;;1.06;100.00;100934.60;109411;1251;73918;-53
2024/03/04 00:03:44;;;;;;;10.70;6.20;;;;;;;1.03;100.00;100933.08;109477;1251;65705;-52
2024/03/04 00:06:12;;;;;;;9.10;4.80;;;;;;;0.99;100.00;100931.48;109499;1251;72645;-52
2024/03/04 00:08:39;;;;;;;7.90;4.90;;;;;;;0.96;100.00;100931.66;109398;1251;59638;-53
2024/03/04 00:11:07;;;;;;;8.30;5.70;;;;;;;0.94;100.00;100927.20;109434;1251;59165;-53
2024/03/04 00:13:36;;;;;;;9.00;5.50;;;;;;;0.90;100.00;100928.80;109509;1253;72631;-53
2024/03/04 00:16:05;;;;;;;8.70;5.10;;;;;;;0.87;100.00;100930.60;109436;1251;64647;-52
2024/03/04 00:18:32;;;;;;;10.90;6.20;;;;;;;0.83;100.00;100928.97;109450;1252;71414;-52
2024/03/04 00:21:00;;;;;;;7.50;5.40;;;;;;;0.79;100.00;100933.51;109342;1254;60928;-57
2024/03/04 00:23:28;;;;;;;9.30;5.60;;;;;;;0.76;100.00;100929.48;109489;1251;60197;-54
2024/03/04 00:25:55;;;;;;;11.40;6.40;;;;;;;0.74;100.00;100931.81;109426;1254;72647;-53
2024/03/04 00:28:23;;;;;;;9.40;6.00;;;;;;;0.70;100.00;100927.93;109505;1251;67085;-53
2024/03/04 00:30:51;;;;;;;13.00;5.90;;;;;;;0.66;100.00;100927.88;109481;1251;72694;-53
2024/03/04 00:33:18;;;;;;;8.90;5.80;;;;;;;0.61;100.00;100934.70;109391;1251;58074;-52
2024/03/04 00:35:46;;;;;;;10.40;5.50;;;;;;;0.58;100.00;100920.70;109511;1251;58825;-53
2024/03/04 00:38:13;;;;;;;11.30;6.40;;;;;;;0.56;100.00;100926.15;109432;1251;73888;-54
2024/03/04 00:40:41;;;;;;;10.30;5.90;;;;;;;0.53;100.00;100922.59;109469;1251;66962;-54
2024/03/04 00:43:10;;;;;;;10.50;5.60;;;;;;;0.48;100.00;100920.83;109434;1251;73225;-52
2024/03/04 00:45:38;;;;;;;10.10;5.50;;;;;;;0.45;100.00;100919.70;109474;1251;59335;-52
2024/03/04 00:48:05;;;;;;;9.80;5.60;;;;;;;0.41;100.00;100918.41;109502;1251;58782;-53
2024/03/04 00:50:33;;;;;;;11.90;5.50;;;;;;;0.40;100.00;100918.86;109442;1251;72633;-53
2024/03/04 00:53:02;;;;;;;9.80;6.20;;;;;;;0.37;100.00;100916.33;109386;1251;67024;-55
2024/03/04 00:55:29;;;;;;;12.10;6.70;;;;;;;0.33;100.00;100924.40;109487;1253;72745;-53
2024/03/04 00:57:57;;;;;;;13.60;7.20;;;;;;;0.31;100.00;100916.21;109492;1251;60095;-54
2024/03/04 01:00:25;;;;;;;12.00;7.30;;;;;;;0.27;100.00;100920.40;109444;1251;59271;-53
2024/03/04 01:02:53;;;;;;;10.20;7.00;;;;;;;0.23;100.00;100919.05;109455;1251;73224;-52
2024/03/04 01:05:21;;;;;;;14.60;7.00;;;;;;;0.20;100.00;100916.54;109426;1251;65821;-53
2024/03/04 01:07:50;;;;;;;10.70;5.70;;;;;;;0.17;100.00;100915.89;109458;1251;72735;-53
2024/03/04 01:10:18;;;;;;;11.40;6.20;;;;;;;0.16;100.00;100910.29;109446;1251;59619;-53
2024/03/04 01:12:46;;;;;;;9.40;5.80;;;;;;;0.15;100.00;100912.92;109481;1251;58900;-53
2024/03/04 01:15:13;;;;;;;10.10;5.70;;;;;;;0.14;100.00;100914.89;109421;1251;73938;-53
2024/03/04 01:17:41;;;;;;;13.70;6.30;;;;;;;0.13;100.00;100910.51;109502;1251;66092;-52
2024/03/04 01:20:10;;;;;;;10.40;6.30;;;;;;;0.11;100.00;100908.05;109404;1251;72958;-54
2024/03/04 01:22:38;;;;;;;10.70;5.70;;;;;;;0.08;100.00;100909.84;109446;1251;60086;-53
2024/03/04 01:25:05;;;;;;;9.50;5.90;;;;;;;0.04;100.00;100917.58;109426;1251;60524;-58
2024/03/04 01:27:35;;;;;;;12.60;6.70;;;;;;;0.00;100.00;100916.30;109418;1251;72025;-53
2024/03/04 01:30:03;;;;;;;9.10;5.50;;;;;;;-0.04;100.00;100922.69;109455;1251;66815;-52
2024/03/04 01:32:31;;;;;;;10.80;6.20;;;;;;;-0.07;100.00;100921.90;109466;1251;71447;-53
2024/03/04 01:34:59;;;;;;;8.70;6.00;;;;;;;-0.11;100.00;100921.29;109463;1251;59284;-54
2024/03/04 01:37:26;;;;;;;12.50;7.00;;;;;;;-0.14;100.00;100917.55;109432;1251;58812;-53
2024/03/04 01:39:54;;;;;;;9.60;5.90;;;;;;;-0.18;100.00;100920.41;109475;1251;72233;-53
2024/03/04 01:42:22;;;;;;;9.70;6.10;;;;;;;-0.20;100.00;100920.33;109486;1251;65898;-52
2024/03/04 01:44:49;;;;;;;11.20;6.50;;;;;;;-0.22;100.00;100926.60;109430;1251;71424;-53
2024/03/04 01:47:20;;;;;;;10.80;6.40;;;;;;;-0.25;100.00;100921.82;109443;1252;59340;-53
2024/03/04 01:49:48;;;;;;;12.70;5.70;;;;;;;-0.27;100.00;100923.98;109409;1251;59329;-52
2024/03/04 01:52:16;;;;;;;12.10;5.90;;;;;;;-0.30;100.00;100926.21;109327;1251;187108;-53
2024/03/04 01:54:46;;;;;;;13.20;6.60;;;;;;;-0.33;100.00;100926.75;109517;1251;66988;-53
2024/03/04 01:57:17;;;;;;;11.70;7.00;;;;;;;-0.36;100.00;100925.23;109437;1253;70954;-53
2024/03/04 01:59:47;;;;;;;11.80;6.30;;;;;;;-0.39;100.00;100926.79;109460;1251;59484;-54
2024/03/04 02:02:16;;;;;;;10.10;6.00;;;;;;;-0.40;100.00;100928.42;109267;1251;59364;-52
2024/03/04 02:04:44;;;;;;;9.90;5.80;;;;;;;-0.42;100.00;100935.88;109496;1251;73858;-52
2024/03/04 02:07:13;;;;;;;10.50;5.60;;;;;;;-0.45;100.00;100937.78;109244;1251;65389;-57
2024/03/04 02:09:41;;;;;;;10.00;6.70;;;;;;;-0.48;100.00;100944.45;109351;1251;71841;-52
2024/03/04 02:12:08;;;;;;;9.30;6.50;;;;;;;-0.51;100.00;100948.70;109262;1251;60900;-52
2024/03/04 02:14:36;;;;;;;9.80;6.60;;;;;;;-0.52;100.00;100945.39;109304;1251;58770;-53
2024/03/04 02:17:05;;;;;;;9.70;6.10;;;;;;;-0.54;100.00;100948.89;109348;1250;72664;-58
2024/03/04 02:19:32;;;;;;;11.10;6.80;;;;;;;-0.55;100.00;100944.89;109457;1253;66206;-53
2024/03/04 02:22:02;;;;;;;11.60;6.70;;;;;;;-0.56;100.00;100952.30;109515;1251;72732;-53
2024/03/04 02:24:30;;;;;;;10.80;6.60;;;;;;;-0.56;100.00;100947.19;109458;1251;59626;-54
2024/03/04 02:26:57;;;;;;;12.00;7.30;;;;;;;-0.55;100.00;100950.52;109528;1251;58809;-53
2024/03/04 02:29:25;;;;;;;12.10;7.30;;;;;;;-0.51;100.00;100950.80;109430;1251;72614;-54
2024/03/04 02:31:52;;;;;;;9.20;6.10;;;;;;;-0.45;100.00;100948.87;109433;1251;66990;-53
2024/03/04 02:34:20;;;;;;;11.70;6.50;;;;;;;-0.40;100.00;100950.42;109424;1251;70891;-55
2024/03/04 02:36:47;;;;;;;10.70;6.70;;;;;;;-0.34;100.00;100953.67;109384;1251;58334;-54
2024/03/04 02:39:15;;;;;;;10.10;7.20;;;;;;;-0.30;100.00;100959.54;109448;1251;60110;-56
2024/03/04 02:41:43;;;;;;;9.90;6.30;;;;;;;-0.27;100.00;100956.80;109298;1256;73248;-53
2024/03/04 02:44:11;;;;;;;12.50;7.70;;;;;;;-0.27;100.00;100956.91;109504;1251;66956;-53
2024/03/04 02:46:41;;;;;;;9.30;6.40;;;;;;;-0.27;100.00;100953.39;109472;1251;72742;-53
2024/03/04 02:49:09;;;;;;;11.10;6.80;;;;;;;-0.32;100.00;100955.73;109470;1252;59377;-59
2024/03/04 02:51:37;;;;;;;10.60;7.30;;;;;;;-0.38;100.00;100954.41;109453;1251;60102;-52
2024/03/04 02:54:05;;;;;;;13.60;7.70;;;;;;;-0.42;100.00;100958.56;109523;1251;71818;-52
2024/03/04 02:56:32;;;;;;;10.50;6.20;;;;;;;-0.46;100.00;100959.70;109508;1251;67447;-53
2024/03/04 02:59:00;;;;;;;10.80;7.00;;;;;;;-0.50;100.00;100959.08;109456;1251;72814;-53
2024/03/04 03:01:27;;;;;;;11.30;7.10;;;;;;;-0.52;100.00;100962.77;109445;1251;58685;-53
2024/03/04 03:03:56;;;;;;;12.60;7.10;;;;;;;-0.54;100.00;100967.18;109454;1254;60934;-53
2024/03/04 03:06:25;;;;;;;11.10;7.00;;;;;;;-0.56;100.00;100966.27;109488;1251;73900;-54
2024/03/04 03:08:52;;;;;;;11.90;7.10;;;;;;;-0.58;100.00;100967.76;109514;1254;67421;-53
2024/03/04 03:11:20;;;;;;;10.80;6.80;;;;;;;-0.60;100.00;100969.11;109554;1251;71411;-56
2024/03/04 03:13:48;;;;;;;10.60;6.50;;;;;;;-0.63;100.00;100975.77;109392;1251;59645;-53
2024/03/04 03:16:20;;;;;;;11.70;7.30;;;;;;;-0.67;100.00;100973.10;109531;1253;58823;-54
2024/03/04 03:18:48;;;;;;;10.40;6.90;;;;;;;-0.70;100.00;100975.87;109505;1251;73925;-53
2024/03/04 03:21:16;;;;;;;10.80;6.60;;;;;;;-0.73;100.00;100975.00;109562;1251;66922;-55
2024/03/04 03:23:44;;;;;;;10.70;6.90;;;;;;;-0.76;100.00;100977.88;109459;1251;72718;-54
2024/03/04 03:26:12;;;;;;;10.40;7.20;;;;;;;-0.76;100.00;100978.92;109495;1255;59641;-53
2024/03/04 03:28:40;;;;;;;11.10;7.30;;;;;;;-0.76;100.00;100979.44;109523;1251;59040;-53
2024/03/04 03:31:08;;;;;;;11.90;7.60;;;;;;;-0.76;100.00;100980.30;109509;1251;73811;-58
2024/03/04 03:33:36;;;;;;;11.80;7.20;;;;;;;-0.77;100.00;100985.27;109514;1251;65899;-53
2024/03/04 03:36:05;;;;;;;11.60;6.90;;;;;;;-0.75;100.00;100987.90;109490;1251;72741;-53
2024/03/04 03:38:33;;;;;;;10.70;6.90;;;;;;;-0.75;100.00;100987.55;109487;1251;59635;-54
2024/03/04 03:41:01;;;;;;;10.40;7.00;;;;;;;-0.73;100.00;100990.00;109518;1251;58791;-59
2024/03/04 03:43:28;;;;;;;10.60;7.20;;;;;;;-0.72;100.00;100990.98;109504;1251;72650;-53
2024/03/04 03:45:56;;;;;;;13.90;8.00;;;;;;;-0.70;100.00;100993.42;109409;1251;65532;-53
2024/03/04 03:48:25;;;;;;;14.10;8.30;;;;;;;-0.70;100.00;100991.25;109469;1251;72701;-53
2024/03/04 03:50:53;;;;;;;11.20;7.90;;;;;;;-0.71;100.00;100999.65;109465;1251;59578;-53
2024/03/04 03:53:22;;;;;;;10.50;7.30;;;;;;;-0.70;100.00;100998.25;109385;1251;59108;-53
2024/03/04 03:55:51;;;;;;;12.20;7.70;;;;;;;-0.72;100.00;100995.27;109501;1251;73812;-53
2024/03/04 03:58:19;;;;;;;12.80;8.10;;;;;;;-0.72;100.00;100995.10;109512;1251;67040;-53
2024/03/04 04:00:46;;;;;;;13.50;7.40;;;;;;;-0.74;100.00;100996.55;109529;1251;70830;-53
2024/03/04 04:03:14;;;;;;;10.90;7.70;;;;;;;-0.74;100.00;100999.98;109434;1251;59258;-54
2024/03/04 04:05:42;;;;;;;12.70;8.20;;;;;;;-0.76;100.00;101002.98;109443;1253;58782;-53
2024/03/04 04:08:09;;;;;;;13.60;8.00;;;;;;;-0.77;100.00;101005.95;109474;1251;73894;-53
2024/03/04 04:10:37;;;;;;;11.60;6.50;;;;;;;-0.78;100.00;101006.17;109533;1251;65612;-53
2024/03/04 04:13:05;;;;;;;11.40;7.50;;;;;;;-0.79;100.00;101008.81;109451;1251;72709;-53
2024/03/04 04:15:33;;;;;;;11.70;7.80;;;;;;;-0.79;100.00;101010.54;109395;1251;59412;-53
2024/03/04 04:18:00;;;;;;;12.80;7.00;;;;;;;-0.81;100.00;101012.81;109445;1251;60060;-53
2024/03/04 04:20:28;;;;;;;11.90;7.20;;;;;;;-0.80;100.00;101009.53;109489;1251;73966;-53
2024/03/04 04:22:55;;;;;;;11.00;7.00;;;;;;;-0.79;100.00;101016.33;109462;1251;65635;-53
2024/03/04 04:25:23;;;;;;;12.50;8.00;;;;;;;-0.78;100.00;101013.36;109480;1251;71421;-54
2024/03/04 04:27:51;;;;;;;11.10;8.00;;;;;;;-0.77;100.00;101018.71;109431;1252;61570;-52
2024/03/04 04:30:18;;;;;;;12.50;7.60;;;;;;;-0.75;100.00;101019.44;109505;1251;58774;-54
2024/03/04 04:32:46;;;;;;;12.40;8.30;;;;;;;-0.73;100.00;101025.02;109435;1251;71899;-54
2024/03/04 04:35:14;;;;;;;11.90;7.90;;;;;;;-0.72;100.00;101017.45;109510;1254;65589;-53
2024/03/04 04:37:42;;;;;;;13.80;7.50;;;;;;;-0.70;100.00;101020.59;109400;1251;72675;-54
2024/03/04 04:40:10;;;;;;;13.20;7.80;;;;;;;-0.68;100.00;101022.84;109428;1251;59650;-53
2024/03/04 04:42:38;;;;;;;12.20;8.20;;;;;;;-0.65;100.00;101022.67;109540;1251;58828;-55
2024/03/04 04:45:06;;;;;;;13.90;8.70;;;;;;;-0.63;100.00;101018.58;109493;1251;73901;-54
2024/03/04 04:47:34;;;;;;;13.50;7.80;;;;;;;-0.59;100.00;101021.92;109533;1250;65521;-54
2024/03/04 04:50:03;;;;;;;12.30;8.70;;;;;;;-0.58;100.00;101021.69;109423;1251;72325;-53
2024/03/04 04:52:30;;;;;;;13.70;8.50;;;;;;;-0.55;100.00;101021.20;109441;1251;60931;-53
2024/03/04 04:54:58;;;;;;;14.20;9.00;;;;;;;-0.53;100.00;101019.52;109494;1251;58784;-53
2024/03/04 04:57:26;;;;;;;15.40;9.10;;;;;;;-0.50;100.00;101025.33;109502;1250;73034;-54
2024/03/04 04:59:53;;;;;;;14.60;8.50;;;;;;;-0.46;100.00;101027.52;109441;1251;65664;-57
2024/03/04 05:02:21;;;;;;;13.00;8.30;;;;;;;-0.44;100.00;101023.27;109456;1251;72613;-52
2024/03/04 05:04:48;;;;;;;12.40;8.60;;;;;;;-0.41;100.00;101029.58;109464;1251;61344;-53
2024/03/04 05:07:25;;;;;;;12.30;8.00;;;;;;;-0.36;100.00;101030.30;109489;1251;58851;-53
2024/03/04 05:09:53;;;;;;;19.90;8.80;;;;;;;-0.33;100.00;101033.69;109479;1251;72729;-57
2024/03/04 05:12:21;;;;;;;12.90;8.10;;;;;;;-0.31;100.00;101032.85;109532;1251;66918;-53
2024/03/04 05:14:49;;;;;;;13.50;8.40;;;;;;;-0.26;100.00;101037.34;109486;1251;72707;-53
2024/03/04 05:17:17;;;;;;;14.30;9.50;;;;;;;-0.20;100.00;101035.83;109479;1251;58106;-53
2024/03/04 05:19:45;;;;;;;13.30;7.80;;;;;;;-0.13;100.00;101036.73;109400;1251;60495;-54
2024/03/04 05:22:13;;;;;;;14.60;8.20;;;;;;;-0.04;100.00;101035.30;109475;1251;72015;-53
2024/03/04 05:24:41;;;;;;;20.20;9.00;;;;;;;0.02;100.00;101033.26;109473;1251;67059;-53
2024/03/04 05:27:09;;;;;;;14.10;9.30;;;;;;;0.11;100.00;101032.52;109459;1251;72649;-54
2024/03/04 05:29:36;;;;;;;15.50;9.20;;;;;;;0.20;100.00;101030.69;109446;1251;58556;-54
2024/03/04 05:32:04;;;;;;;15.20;9.00;;;;;;;0.33;100.00;101030.27;109448;1251;60123;-53
2024/03/04 05:34:32;;;;;;;14.30;9.00;;;;;;;0.46;100.00;101029.72;109509;1251;73880;-53
2024/03/04 05:37:00;;;;;;;14.00;9.30;;;;;;;0.60;100.00;101028.30;109475;1251;65680;-55
2024/03/04 05:39:31;;;;;;;13.80;8.20;;;;;;;0.73;100.00;101031.21;109482;1251;72445;-52
2024/03/04 05:41:59;;;;;;;15.90;8.40;;;;;;;0.85;100.00;101032.66;109460;1251;58186;-53
2024/03/04 05:44:27;;;;;;;12.10;7.90;;;;;;;0.97;100.00;101030.52;109446;1253;58884;-53
2024/03/04 05:46:54;;;;;;;13.20;8.40;;;;;;;1.09;100.00;101030.09;109404;1253;72573;-54
2024/03/04 05:49:22;;;;;;;12.70;8.00;;;;;;;1.17;100.00;101028.63;109457;1251;67173;-53
2024/03/04 05:51:52;;;;;;;11.90;7.80;;;;;;;1.30;100.00;101030.90;109417;1253;72718;-53
2024/03/04 05:54:19;;;;;;;11.70;7.60;;;;;;;1.39;100.00;101027.71;109443;1251;59566;-54
2024/03/04 05:56:47;;;;;;;12.30;8.40;;;;;;;1.46;100.00;101029.44;109460;1251;60142;-53
2024/03/04 05:59:15;;;;;;;15.80;8.90;;;;;;;1.62;100.00;101029.67;109400;1251;73866;-53
2024/03/04 06:01:43;;;;;;;12.30;7.90;;;;;;;1.80;100.00;101034.83;109480;1251;65632;-53
2024/03/04 06:04:10;;;;;;;12.60;8.30;;;;;;;1.98;100.00;101026.19;109437;1251;74059;-54
2024/03/04 06:06:38;;;;;;;12.70;8.60;;;;;;;2.18;100.00;101025.71;109441;1251;60357;-55
2024/03/04 06:09:08;;;;;;;10.20;7.60;;;;;;;2.47;100.00;101023.67;109435;1251;60359;-54
2024/03/04 06:11:36;;;;;;;11.10;6.70;;;;;;;2.87;100.00;101018.49;109458;1251;75920;-53
2024/03/04 06:14:04;;;;;;;10.90;6.70;;;;;;;3.38;100.00;101012.34;109466;1254;65542;-53
2024/03/04 06:16:31;;;;;;;9.60;6.80;;;;;;;3.88;100.00;101008.83;109449;1253;72882;-54
2024/03/04 06:18:59;;;;;;;11.10;6.70;;;;;;;4.25;100.00;100996.97;109453;1251;59306;-54
2024/03/04 06:21:27;;;;;;;11.80;7.20;;;;;;;4.46;100.00;100999.00;109469;1251;58784;-54
2024/03/04 06:23:54;;;;;;;11.00;7.60;;;;;;;4.51;100.00;100993.81;109481;1251;72648;-53
2024/03/04 06:26:22;;;;;;;13.30;7.30;;;;;;;4.48;100.00;100994.70;109446;1254;65732;-54
2024/03/04 06:28:49;;;;;;;13.10;7.20;;;;;;;4.46;100.00;101000.95;109447;1251;71427;-53
2024/03/04 06:31:17;;;;;;;10.00;7.30;;;;;;;4.40;100.00;100993.98;109443;1251;59758;-53
2024/03/04 06:33:45;;;;;;;9.20;6.70;;;;;;;4.48;100.00;100993.39;109412;1251;60078;-54
2024/03/04 06:36:20;;;;;;;9.40;6.70;;;;;;;4.55;100.00;100989.86;109437;1252;73906;-55
2024/03/04 06:38:50;;;;;;;9.10;6.90;;;;;;;4.52;100.00;100989.23;109493;1251;67292;-54
2024/03/04 06:41:17;;;;;;;12.90;7.90;;;;;;;4.46;100.00;100988.52;109444;1251;73302;-52
2024/03/04 06:43:45;;;;;;;13.10;7.80;;;;;;;4.58;100.00;100988.22;109415;1251;59350;-54
2024/03/04 06:46:13;;;;;;;10.70;7.30;;;;;;;4.83;100.00;100990.31;109481;1251;58810;-55
2024/03/04 06:48:40;;;;;;;9.40;6.60;;;;;;;5.08;100.00;100988.54;109473;1251;72656;-54
2024/03/04 06:51:08;;;;;;;10.20;6.70;;;;;;;5.21;100.00;100991.37;109420;1251;67913;-54
2024/03/04 06:53:37;;;;;;;10.70;6.70;;;;;;;5.38;100.00;100985.83;109460;1251;72724;-53
2024/03/04 06:56:07;;;;;;;11.00;6.60;;;;;;;5.71;100.00;100994.35;109348;1251;58469;-55
2024/03/04 06:58:36;;;;;;;10.70;6.30;;;;;;;5.87;100.00;100995.88;109516;1254;60166;-53
2024/03/04 07:01:04;;;;;;;10.20;6.00;;;;;;;5.93;100.00;100993.80;109390;1252;72689;-54
2024/03/04 07:03:32;;;;;;;8.90;6.40;;;;;;;6.04;100.00;100996.28;109487;1251;64914;-54
2024/03/04 07:06:00;;;;;;;11.30;7.10;;;;;;;6.15;100.00;100999.83;109412;1251;71038;-54
2024/03/04 07:08:27;;;;;;;8.50;6.10;;;;;;;6.20;100.00;100991.96;109472;1253;59720;-53
2024/03/04 07:10:59;;;;;;;8.00;6.30;;;;;;;6.41;100.00;100996.98;109468;1251;60662;-54
2024/03/04 07:13:27;;;;;;;11.50;6.50;;;;;;;6.40;100.00;101004.19;109474;1251;72623;-54
2024/03/04 07:15:54;;;;;;;10.80;7.30;;;;;;;6.27;100.00;100991.19;109441;1251;69313;-54
2024/03/04 07:18:24;;;;;;;9.80;7.30;;;;;;;6.29;100.00;100993.42;109478;1251;74980;-54
2024/03/04 07:20:51;;;;;;;9.50;6.70;;;;;;;6.43;100.00;100984.93;109414;1252;59441;-60
2024/03/04 07:23:19;;;;;;;11.40;6.50;;;;;;;6.48;100.00;100982.38;109464;1251;62533;-53
2024/03/04 07:25:47;;;;;;;8.90;6.30;;;;;;;6.48;100.00;100986.52;109507;1251;73084;-54
2024/03/04 07:28:15;;;;;;;10.00;6.90;;;;;;;6.52;100.00;100977.70;109473;1253;68880;-54
2024/03/04 07:30:42;;;;;;;9.90;7.10;;;;;;;6.71;100.00;100980.30;109447;1251;72744;-53
2024/03/04 07:33:11;;;;;;;8.80;6.50;;;;;;;7.00;100.00;100975.03;109399;1251;60829;-54
2024/03/04 07:35:40;;;;;;;8.90;6.20;;;;;;;7.27;100.00;100973.02;109477;1253;62113;-54
2024/03/04 07:38:09;;;;;;;8.30;6.30;;;;;;;7.48;100.00;100974.11;109446;1254;76297;-55
2024/03/04 07:40:37;;;;;;;10.00;6.30;;;;;;;7.33;100.00;100976.83;109416;1251;69479;-55
2024/03/04 07:43:04;;;;;;;10.90;6.80;;;;;;;7.16;100.00;100968.88;109436;1251;72737;-59
2024/03/04 07:45:32;;;;;;;13.70;6.10;;;;;;;7.17;100.00;100970.02;109449;1252;59317;-55
2024/03/04 07:47:59;;;;;;;9.90;6.70;;;;;;;7.22;100.00;100967.27;109542;1253;61092;-54
2024/03/04 07:50:27;;;;;;;11.00;6.20;;;;;;;7.33;100.00;100966.05;109477;1252;73904;-54
2024/03/04 07:52:55;;;;;;;8.80;5.30;;;;;;;7.42;100.00;100964.31;109497;1251;66921;-54
2024/03/04 07:55:23;;;;;;;9.50;5.70;;;;;;;7.35;100.00;100956.09;109382;1251;74826;-54
2024/03/04 07:57:50;;;;;;;11.10;6.70;;;;;;;7.51;100.00;100956.40;109476;1251;58203;-54
2024/03/04 08:00:18;;;;;;;9.40;6.10;;;;;;;7.72;100.00;100950.77;109449;1252;61634;-54
2024/03/04 08:02:46;;;;;;;8.70;6.10;;;;;;;7.76;100.00;100953.70;109470;1251;72921;-54
2024/03/04 08:05:13;;;;;;;9.50;6.00;;;;;;;7.59;100.00;100959.14;109483;1254;69253;-54
2024/03/04 08:07:41;;;;;;;10.00;5.90;;;;;;;7.46;100.00;100954.92;109413;1254;74480;-55
2024/03/04 08:10:09;;;;;;;11.20;6.00;;;;;;;7.54;100.00;100954.56;109451;1251;61090;-54
2024/03/04 08:12:37;;;;;;;11.60;6.00;;;;;;;7.56;100.00;100953.02;109466;1252;62257;-54
2024/03/04 08:15:05;;;;;;;9.80;5.90;;;;;;;7.54;100.00;100944.40;109454;1251;75962;-54
2024/03/04 08:17:33;;;;;;;11.20;6.00;;;;;;;7.71;100.00;100944.48;109463;1251;68207;-54
2024/03/04 08:20:03;;;;;;;9.10;5.70;;;;;;;8.00;100.00;100946.14;109452;1253;73211;-54
2024/03/04 08:22:40;;;;;;;12.00;6.60;;;;;;;8.11;99.93;100946.15;109412;1253;60188;-54
2024/03/04 08:25:08;;;;;;;10.50;5.60;;;;;;;7.92;99.99;100939.81;109436;1252;63342;-57
2024/03/04 08:27:36;;;;;;;9.30;5.90;;;;;;;7.96;100.00;100937.58;109490;1252;75982;-54
2024/03/04 08:30:04;;;;;;;9.70;5.70;;;;;;;8.15;100.00;100929.81;109446;1251;68370;-55
2024/03/04 08:32:32;;;;;;;10.20;5.90;;;;;;;8.31;99.20;100932.76;109472;1251;74774;-55
2024/03/04 08:35:00;;;;;;;9.70;6.10;;;;;;;8.42;96.08;100928.41;109440;1252;62299;-54
2024/03/04 08:37:28;;;;;;;11.30;6.00;;;;;;;8.47;95.34;100925.59;109450;1251;62272;-54
2024/03/04 08:39:59;;;;;;;7.20;5.30;;;;;;;8.60;93.31;100923.16;109359;1253;76536;-54
2024/03/04 08:42:27;;;;;;;10.90;6.50;;;;;;;8.66;91.98;100920.63;109456;1252;68366;-54
2024/03/04 08:44:54;;;;;;;12.00;5.70;;;;;;;8.81;91.10;100917.36;109474;1254;74735;-54
2024/03/04 08:47:22;;;;;;;8.60;5.60;;;;;;;8.87;87.63;100917.95;109464;1251;62912;-58
2024/03/04 08:49:50;;;;;;;11.30;6.00;;;;;;;8.86;86.16;100914.70;109477;1256;62183;-55
2024/03/04 08:52:17;;;;;;;8.50;5.60;;;;;;;8.83;87.44;100910.94;109442;1253;75844;-54
2024/03/04 08:54:45;;;;;;;7.50;4.50;;;;;;;8.86;87.24;100912.73;109467;1252;67805;-54
2024/03/04 08:57:13;;;;;;;6.80;4.70;;;;;;;8.88;86.68;100916.69;109410;1252;75278;-58
2024/03/04 08:59:41;;;;;;;8.30;5.50;;;;;;;8.83;87.43;100915.79;109401;1254;61155;-54
2024/03/04 09:02:10;;;;;;;7.80;4.30;;;;;;;8.89;87.60;100919.35;109430;1253;62155;-57
2024/03/04 09:04:38;;;;;;;6.90;4.70;;;;;;;8.97;86.62;100909.70;109436;1253;74826;-54
2024/03/04 09:07:08;;;;;;;7.50;4.90;;;;;;;9.08;83.90;100906.79;109448;1253;69692;-54
2024/03/04 09:09:37;;;;;;;8.70;4.90;;;;;;;9.11;83.97;100902.89;109433;1251;73428;-54
2024/03/04 09:12:05;;;;;;;12.20;8.30;;;;;;;9.25;83.26;100906.66;109433;1251;61136;-54
2024/03/04 09:14:32;;;;;;;9.30;5.70;;;;;;;9.36;79.17;100906.48;109493;1251;61062;-53
2024/03/04 09:17:00;;;;;;;8.60;4.70;;;;;;;9.34;78.49;100893.54;109463;1251;74610;-53
2024/03/04 09:19:28;;;;;;;7.00;4.30;;;;;;;9.41;75.88;100888.84;109443;1251;66494;-57
2024/03/04 09:21:55;;;;;;;7.20;4.60;;;;;;;9.44;75.31;100884.73;109487;1251;74871;-52
2024/03/04 09:24:23;;;;;;;8.00;4.70;;;;;;;9.56;75.58;100890.91;109431;1251;61146;-54
2024/03/04 09:26:51;;;;;;;11.30;5.60;;;;;;;9.74;71.83;100890.08;109476;1251;60375;-53
2024/03/04 09:29:18;;;;;;;11.20;5.50;;;;;;;9.74;69.15;100888.71;109483;1251;75961;-53
2024/03/04 09:31:46;;;;;;;6.90;4.50;;;;;;;9.67;66.87;100884.19;109429;1251;67887;-54
2024/03/04 09:34:14;;;;;;;13.10;6.00;;;;;;;9.56;66.71;100882.28;109477;1256;74838;-52
2024/03/04 09:36:41;;;;;;;8.20;4.20;;;;;;;9.61;67.11;100885.10;109459;1251;61069;-53
2024/03/04 09:39:09;;;;;;;7.80;4.40;;;;;;;9.62;65.26;100884.70;109471;1251;61719;-52
2024/03/04 09:41:41;;;;;;;;;;;;;;;9.59;63.97;100884.34;109427;1251;75902;-56
2024/03/04 09:44:08;;;;;;;8.90;5.80;;;;;;;9.60;65.11;100882.67;109476;1251;67650;-52
2024/03/04 09:46:37;;;;;;;8.90;4.30;;;;;;;9.69;64.38;100876.83;109472;1251;75695;-54
2024/03/04 09:49:05;;;;;;;8.50;4.30;;;;;;;9.79;62.68;100883.28;109444;1251;61681;-56
2024/03/04 09:51:33;;;;;;;8.40;4.00;;;;;;;9.77;58.65;100870.98;109445;1251;63509;-54
2024/03/04 09:54:01;;;;;;;8.30;4.00;;;;;;;9.69;56.59;100872.86;109390;1251;74851;-53
2024/03/04 09:56:29;;;;;;;8.60;4.10;;;;;;;9.71;58.03;100874.04;109481;1251;68822;-53
2024/03/04 09:58:56;;;;;;;6.90;4.50;;;;;;;9.85;57.53;100874.71;109426;1251;75037;-53
2024/03/04 10:01:24;;;;;;;8.70;3.80;;;;;;;9.92;56.39;100863.69;109418;1251;61639;-53
2024/03/04 10:03:52;;;;;;;10.30;4.60;;;;;;;9.94;55.64;100862.02;109517;1251;62299;-53
2024/03/04 10:06:20;;;;;;;8.60;4.20;;;;;;;10.02;54.22;100854.08;109254;1251;75238;-52
2024/03/04 10:08:47;;;;;;;7.40;3.70;;;;;;;10.17;52.60;100855.06;109338;1251;68723;-53
2024/03/04 10:11:15;;;;;;;9.80;3.60;;;;;;;10.21;50.43;100858.97;109510;1254;73716;-52
2024/03/04 10:13:43;;;;;;;9.00;4.00;;;;;;;10.07;48.89;100862.60;109470;1251;61725;-52
2024/03/04 10:16:15;;;;;;;10.10;4.20;;;;;;;9.94;47.81;100850.79;109276;1254;61108;-54
2024/03/04 10:18:48;;;;;;;;;;;;;;;9.90;48.23;100851.39;109483;1251;74832;-54
2024/03/04 10:21:17;;;;;;;8.00;4.40;;;;;;;10.00;49.32;100851.20;109368;1254;69215;-54
2024/03/04 10:23:44;;;;;;;8.40;4.10;;;;;;;10.16;49.06;100848.61;109477;1251;74330;-52
2024/03/04 10:26:12;;;;;;;9.10;4.30;;;;;;;10.18;48.48;100842.41;109477;1251;60216;-53
2024/03/04 10:28:41;;;;;;;10.10;4.90;;;;;;;10.22;48.44;100837.17;109469;1254;62303;-54
2024/03/04 10:31:10;;;;;;;8.60;4.20;;;;;;;10.26;48.07;100835.42;109462;1253;76408;-53
2024/03/04 10:33:39;;;;;;;8.70;4.30;;;;;;;10.25;47.07;100838.26;109454;1255;69263;-55
2024/03/04 10:36:16;;;;;;;8.20;4.70;;;;;;;10.17;47.07;100829.58;109480;1251;73729;-53
2024/03/04 10:38:46;;;;;;;8.00;4.60;;;;;;;10.17;46.77;100830.80;109463;1251;61849;-53
2024/03/04 10:41:18;;;;;;;9.00;5.60;;;;;;;10.21;45.95;100828.80;109460;1253;60482;-53
2024/03/04 10:43:46;;;;;;;8.70;5.20;;;;;;;10.28;45.33;100820.73;109434;1254;75971;-53
2024/03/04 10:46:15;;;;;;;7.20;4.20;;;;;;;10.53;45.41;100820.23;109520;1251;67791;-54
2024/03/04 10:48:45;;;;;;;6.60;4.10;;;;;;;10.66;44.83;100819.05;109483;1254;75117;-53
2024/03/04 10:51:16;;;;;;;10.00;4.10;;;;;;;10.69;44.30;100818.12;109495;1251;62161;-53
2024/03/04 10:53:44;;;;;;;8.70;4.40;;;;;;;10.67;43.06;100816.83;109462;1251;62308;-54
2024/03/04 10:56:14;;;;;;;10.50;4.00;;;;;;;10.63;42.57;100814.81;109469;1251;76150;-53
2024/03/04 10:58:43;;;;;;;9.50;4.10;;;;;;;10.67;42.09;100811.61;109486;1251;68076;-54
2024/03/04 11:01:14;;;;;;;5.80;3.70;;;;;;;10.70;42.04;100810.76;109487;1251;74774;-60
2024/03/04 11:03:46;;;;;;;13.00;8.50;;;;;;;10.78;41.44;100803.48;109480;1251;62668;-53
2024/03/04 11:06:19;;;;;;;10.10;6.80;;;;;;;10.81;41.76;100795.57;109362;1251;62412;-54
2024/03/04 11:08:55;;;;;;;12.70;6.00;;;;;;;10.80;41.49;100799.43;109467;1251;74785;-54
2024/03/04 11:11:29;;;;;;;12.00;7.10;;;;;;;10.70;41.27;100805.81;109370;1251;69184;-54
2024/03/04 11:14:03;;;;;;;9.80;6.50;;;;;;;10.59;41.47;100804.63;109448;1251;74915;-53
2024/03/04 11:16:45;;;;;;;10.60;3.50;;;;;;;10.56;39.94;100802.27;109488;1251;61140;-59